Terminal Aerodrome Forecast
Issued by NWS Wilmington, OH

Current Version | Previous Version | Text Only | Print | Product List | Glossary Off
Versions: 1 2 3 4 5 6 7 8 9 10 11 12 13 14 15 16 17

111
FTUS41 KILN 251731
TAFDAY
TAF
KDAY 251731Z 2518/2618 15009KT P6SM FEW040
     FM260200 14007KT P6SM SCT200
     FM261500 17014G22KT P6SM SKC=

USA.gov is the U.S. government's official web portal to all federal, state and local government web resources and services.